createdAt,value
2023-05-15T00:00:44.599Z,2.95
2023-05-15T00:03:12.270Z,3.53
2023-05-15T00:05:39.402Z,3.70
2023-05-15T00:08:06.199Z,3.63
2023-05-15T00:10:32.654Z,3.42
2023-05-15T00:12:59.135Z,3.20
2023-05-15T00:15:25.763Z,3.95
2023-05-15T00:17:52.423Z,4.90
2023-05-15T00:20:18.958Z,3.67
2023-05-15T00:22:45.566Z,3.53
2023-05-15T00:25:12.110Z,3.35
2023-05-15T00:27:38.780Z,3.88
2023-05-15T00:30:05.825Z,3.60
2023-05-15T00:32:32.718Z,2.95
2023-05-15T00:34:59.150Z,3.42
2023-05-15T00:37:25.621Z,3.10
2023-05-15T00:39:52.051Z,3.20
2023-05-15T00:42:19.232Z,2.95
2023-05-15T00:44:47.258Z,3.10
2023-05-15T00:47:14.685Z,3.40
2023-05-15T00:49:42.662Z,2.70
2023-05-15T00:52:09.166Z,2.58
2023-05-15T00:54:35.595Z,3.08
2023-05-15T00:57:06.209Z,2.72
2023-05-15T00:59:33.222Z,2.97
2023-05-15T01:01:59.932Z,2.83
2023-05-15T01:04:26.565Z,2.83
2023-05-15T01:06:56.782Z,3.00
2023-05-15T01:09:25.449Z,2.80
2023-05-15T01:11:54.699Z,3.13
2023-05-15T01:14:21.288Z,2.38
2023-05-15T01:16:47.886Z,3.17
2023-05-15T01:19:14.717Z,3.00
2023-05-15T01:22:04.760Z,2.65
2023-05-15T01:24:48.689Z,3.38
2023-05-15T01:27:37.233Z,2.83
2023-05-15T01:30:07.997Z,3.17
2023-05-15T01:33:03.994Z,2.83
2023-05-15T01:35:38.488Z,2.73
2023-05-15T01:38:27.621Z,2.83
2023-05-15T01:40:59.734Z,3.17
2023-05-15T01:43:28.949Z,3.08
2023-05-15T01:45:57.647Z,2.72
2023-05-15T01:48:27.548Z,2.78
2023-05-15T01:51:01.686Z,2.80
2023-05-15T01:53:32.130Z,2.83
2023-05-15T01:55:59.723Z,2.60
2023-05-15T01:58:28.074Z,2.97
2023-05-15T02:00:56.072Z,3.28
2023-05-15T02:03:23.418Z,3.20
2023-05-15T02:05:51.723Z,3.47
2023-05-15T02:08:19.391Z,2.63
2023-05-15T02:10:46.925Z,3.08
2023-05-15T02:13:13.761Z,2.85
2023-05-15T02:15:40.546Z,2.80
2023-05-15T02:18:07.020Z,2.95
2023-05-15T02:20:33.538Z,2.70
2023-05-15T02:22:59.996Z,2.83
2023-05-15T02:30:08.687Z,2.80
2023-05-15T02:32:57.939Z,3.50
2023-05-15T02:35:37.750Z,2.65
2023-05-15T02:38:09.122Z,2.85
2023-05-15T02:40:37.420Z,3.10
2023-05-15T02:43:05.732Z,2.80
2023-05-15T02:45:32.553Z,3.13
2023-05-15T02:48:00.463Z,2.58
2023-05-15T02:50:27.036Z,3.15
2023-05-15T02:53:04.767Z,3.38
2023-05-15T02:55:31.760Z,3.15
2023-05-15T02:57:59.365Z,2.72
2023-05-15T03:00:26.050Z,2.67
2023-05-15T03:02:53.155Z,2.78
2023-05-15T03:05:19.772Z,2.92
2023-05-15T03:07:46.217Z,3.38
2023-05-15T03:10:12.681Z,2.72
2023-05-15T03:12:39.609Z,3.00
2023-05-15T03:15:07.168Z,2.63
2023-05-15T03:17:33.734Z,2.83
2023-05-15T03:20:00.522Z,2.63
2023-05-15T03:22:27.002Z,3.10
2023-05-15T03:24:53.463Z,2.55
2023-05-15T03:27:19.934Z,3.50
2023-05-15T03:29:46.322Z,3.40
2023-05-15T03:32:12.771Z,3.10
2023-05-15T03:34:41.059Z,2.78
2023-05-15T03:37:07.648Z,2.65
2023-05-15T03:39:34.348Z,3.30
2023-05-15T03:42:00.773Z,3.40
2023-05-15T03:44:27.193Z,3.00
2023-05-15T03:46:53.618Z,3.17
2023-05-15T03:49:20.165Z,3.30
2023-05-15T03:51:46.661Z,3.60
2023-05-15T03:54:13.613Z,3.47
2023-05-15T03:56:40.203Z,3.53
2023-05-15T03:59:06.659Z,3.38
2023-05-15T04:01:33.692Z,4.00
2023-05-15T04:04:03.943Z,3.60
2023-05-15T04:06:30.351Z,4.03
2023-05-15T04:08:56.870Z,3.58
2023-05-15T04:11:23.847Z,3.92
2023-05-15T04:13:50.308Z,4.03
2023-05-15T04:16:16.756Z,3.80
2023-05-15T04:18:43.259Z,3.90
2023-05-15T04:21:09.712Z,3.20
2023-05-15T04:23:36.229Z,3.83
2023-05-15T04:26:02.643Z,4.35
2023-05-15T04:28:30.499Z,4.15
2023-05-15T04:30:58.641Z,4.55
2023-05-15T04:33:25.420Z,4.22
2023-05-15T04:35:52.161Z,4.10
2023-05-15T04:38:18.862Z,4.30
2023-05-15T04:40:46.099Z,4.40
2023-05-15T04:43:12.554Z,3.78
2023-05-15T04:45:38.976Z,4.43
2023-05-15T04:48:05.698Z,4.55
2023-05-15T04:50:32.157Z,4.25
2023-05-15T04:52:58.630Z,4.40
2023-05-15T04:55:25.180Z,4.30
2023-05-15T04:57:51.814Z,3.92
2023-05-15T05:00:18.374Z,3.97
2023-05-15T05:02:44.864Z,3.83
2023-05-15T05:05:11.741Z,4.50
2023-05-15T05:07:38.176Z,4.82
2023-05-15T05:10:05.529Z,4.35
2023-05-15T05:12:31.971Z,3.80
2023-05-15T05:14:58.389Z,4.00
2023-05-15T05:17:24.870Z,3.65
2023-05-15T05:19:51.313Z,4.05
2023-05-15T05:22:17.740Z,4.03
2023-05-15T05:24:44.183Z,4.00
2023-05-15T05:27:10.951Z,4.20
2023-05-15T05:29:37.695Z,3.63
2023-05-15T05:32:04.391Z,3.80
2023-05-15T05:34:30.840Z,3.67
2023-05-15T05:36:57.326Z,3.15
2023-05-15T05:39:23.794Z,3.00
2023-05-15T05:41:50.275Z,3.67
2023-05-15T05:44:16.815Z,2.90
2023-05-15T05:46:43.422Z,3.88
2023-05-15T05:49:09.877Z,3.22
2023-05-15T05:51:39.150Z,3.13
2023-05-15T05:54:05.937Z,3.35
2023-05-15T05:56:32.519Z,3.10
2023-05-15T05:59:01.673Z,3.25
2023-05-15T06:01:28.333Z,3.08
2023-05-15T06:03:55.917Z,3.60
2023-05-15T06:06:22.629Z,3.35
2023-05-15T06:08:49.053Z,3.65
2023-05-15T06:11:15.956Z,3.10
2023-05-15T06:13:43.384Z,3.63
2023-05-15T06:16:09.845Z,3.22
2023-05-15T06:18:36.292Z,3.35
2023-05-15T06:21:03.301Z,2.83
2023-05-15T06:23:29.699Z,3.10
2023-05-15T06:25:56.297Z,2.90
2023-05-15T06:28:22.815Z,3.22
2023-05-15T06:30:49.304Z,3.00
2023-05-15T06:33:15.793Z,2.85
2023-05-15T06:35:42.557Z,3.13
2023-05-15T06:38:09.276Z,3.05
2023-05-15T06:40:35.701Z,3.05
2023-05-15T06:43:02.152Z,3.47
2023-05-15T06:45:28.640Z,3.03
2023-05-15T06:47:55.285Z,2.95
2023-05-15T06:50:21.810Z,3.40
2023-05-15T06:52:48.410Z,2.65
2023-05-15T06:55:14.835Z,2.88
2023-05-15T06:57:41.255Z,2.70
2023-05-15T07:00:08.188Z,3.17
2023-05-15T07:02:34.633Z,2.95
2023-05-15T07:05:01.094Z,2.45
2023-05-15T07:07:27.559Z,2.85
2023-05-15T07:09:53.990Z,2.95
2023-05-15T07:12:20.426Z,3.00
2023-05-15T07:14:46.901Z,2.88
2023-05-15T07:17:13.712Z,3.55
2023-05-15T07:19:40.251Z,2.70
2023-05-15T07:22:06.680Z,2.63
2023-05-15T07:24:33.131Z,2.53
2023-05-15T07:26:59.579Z,2.80
2023-05-15T07:29:26.244Z,3.13
2023-05-15T07:31:52.979Z,2.55
2023-05-15T07:34:19.446Z,3.28
2023-05-15T07:36:45.873Z,2.95
2023-05-15T07:39:12.495Z,2.78
2023-05-15T07:41:39.015Z,2.13
2023-05-15T07:44:05.976Z,2.40
2023-05-15T07:46:33.300Z,2.80
2023-05-15T07:48:59.838Z,2.47
2023-05-15T07:51:26.539Z,2.38
2023-05-15T07:53:52.972Z,2.33
2023-05-15T07:56:19.399Z,2.33
2023-05-15T07:58:45.869Z,2.30
2023-05-15T08:01:12.484Z,2.75
2023-05-15T08:03:39.013Z,2.80
2023-05-15T08:06:07.260Z,2.60
2023-05-15T08:08:34.081Z,2.70
2023-05-15T08:11:00.582Z,4.07
2023-05-15T08:13:27.019Z,3.42
2023-05-15T08:15:53.466Z,2.45
2023-05-15T08:18:19.908Z,2.25
2023-05-15T08:20:46.483Z,3.97
2023-05-15T08:23:15.444Z,3.22
2023-05-15T08:25:41.853Z,2.92
2023-05-15T08:28:08.395Z,2.92
2023-05-15T08:30:35.903Z,4.45
2023-05-15T08:33:02.376Z,4.28
2023-05-15T08:35:28.915Z,4.25
2023-05-15T08:37:55.526Z,3.45
2023-05-15T08:40:31.092Z,2.78
2023-05-15T08:43:10.779Z,2.40
2023-05-15T08:45:37.330Z,2.45
2023-05-15T08:48:10.601Z,2.17
2023-05-15T08:50:39.065Z,2.30
2023-05-15T08:53:05.761Z,2.30
2023-05-15T08:55:32.631Z,2.17
2023-05-15T08:57:59.925Z,1.98
2023-05-15T09:00:27.176Z,1.95
2023-05-15T09:02:54.377Z,2.38
2023-05-15T09:05:20.973Z,2.60
2023-05-15T09:07:47.942Z,2.38
2023-05-15T09:10:15.131Z,2.30
2023-05-15T09:12:46.226Z,2.33
2023-05-15T09:15:17.984Z,2.72
2023-05-15T09:17:45.738Z,2.50
2023-05-15T09:20:26.828Z,2.58
2023-05-15T09:22:53.468Z,2.53
2023-05-15T09:25:39.851Z,2.40
2023-05-15T09:28:10.640Z,2.55
2023-05-15T09:30:38.685Z,2.30
2023-05-15T09:33:05.206Z,2.38
2023-05-15T09:35:39.023Z,2.47
2023-05-15T09:38:12.539Z,2.40
2023-05-15T09:40:40.774Z,2.50
2023-05-15T09:43:10.259Z,2.17
2023-05-15T09:45:36.706Z,2.53
2023-05-15T09:48:07.882Z,2.50
2023-05-15T09:50:39.726Z,2.30
2023-05-15T09:53:06.371Z,2.42
2023-05-15T09:55:34.757Z,2.42
2023-05-15T09:58:21.454Z,1.90
2023-05-15T10:00:49.570Z,2.20
2023-05-15T10:03:19.110Z,2.13
2023-05-15T10:05:45.729Z,2.30
2023-05-15T10:08:12.584Z,3.15
2023-05-15T10:10:39.234Z,2.42
2023-05-15T10:13:08.272Z,2.92
2023-05-15T10:15:35.288Z,2.92
2023-05-15T10:18:04.195Z,2.60
2023-05-15T10:20:31.976Z,2.67
2023-05-15T10:23:00.565Z,2.65
2023-05-15T10:25:30.380Z,2.47
2023-05-15T10:27:57.993Z,2.85
2023-05-15T10:30:25.995Z,2.40
2023-05-15T10:32:52.766Z,2.38
2023-05-15T10:35:19.412Z,2.63
2023-05-15T10:37:49.974Z,2.20
2023-05-15T10:40:17.310Z,2.30
2023-05-15T10:42:45.978Z,2.72
2023-05-15T10:45:13.219Z,2.38
2023-05-15T10:47:42.185Z,2.20
2023-05-15T10:50:09.842Z,2.00
2023-05-15T10:52:38.421Z,2.58
2023-05-15T10:55:18.114Z,1.90
2023-05-15T10:57:48.175Z,1.95
2023-05-15T11:00:24.067Z,1.60
2023-05-15T11:05:20.655Z,1.38
2023-05-15T11:08:27.551Z,1.40
2023-05-15T11:10:54.451Z,1.10
2023-05-15T11:13:21.407Z,1.50
2023-05-15T11:15:48.508Z,1.58
2023-05-15T11:18:15.385Z,1.60
2023-05-15T11:20:52.012Z,1.33
2023-05-15T11:23:22.185Z,1.50
2023-05-15T11:25:58.065Z,1.40
2023-05-15T11:28:25.962Z,1.50
2023-05-15T11:30:58.940Z,1.30
2023-05-15T11:33:29.695Z,1.33
2023-05-15T11:36:00.374Z,1.20
2023-05-15T11:38:27.298Z,1.42
2023-05-15T11:40:56.940Z,1.58
2023-05-15T11:43:24.768Z,1.60
2023-05-15T11:45:55.982Z,1.40
2023-05-15T11:48:24.138Z,1.25
2023-05-15T11:50:53.640Z,1.05
2023-05-15T11:53:20.628Z,1.38
2023-05-15T11:55:47.332Z,1.33
2023-05-15T11:58:16.278Z,2.00
2023-05-15T12:00:44.910Z,1.70
2023-05-15T12:03:14.408Z,1.33
2023-05-15T12:05:53.657Z,1.98
2023-05-15T12:08:24.573Z,1.60
2023-05-15T12:10:51.001Z,2.03
2023-05-15T12:13:18.472Z,2.30
2023-05-15T12:15:47.037Z,1.90
2023-05-15T12:18:14.020Z,1.73
2023-05-15T12:20:46.670Z,1.83
2023-05-15T12:23:17.662Z,1.80
2023-05-15T12:25:46.734Z,1.65
2023-05-15T12:28:14.444Z,1.40
2023-05-15T12:30:42.297Z,1.35
2023-05-15T12:33:10.796Z,1.30
2023-05-15T12:35:42.086Z,1.40
2023-05-15T12:38:13.519Z,1.30
2023-05-15T12:40:40.093Z,1.70
2023-05-15T12:43:07.856Z,1.38
2023-05-15T12:45:38.156Z,1.48
2023-05-15T12:48:05.822Z,1.25
2023-05-15T12:50:33.664Z,1.45
2023-05-15T12:53:04.737Z,1.50
2023-05-15T12:55:35.983Z,1.33
2023-05-15T12:58:08.614Z,1.50
2023-05-15T13:00:36.735Z,1.30
2023-05-15T13:03:04.514Z,1.63
2023-05-15T13:05:35.661Z,1.55
2023-05-15T13:08:03.448Z,1.95
2023-05-15T13:10:33.259Z,1.70
2023-05-15T13:13:00.143Z,1.90
2023-05-15T13:15:30.489Z,1.60
2023-05-15T13:18:18.116Z,2.10
2023-05-15T13:20:46.533Z,1.60
2023-05-15T13:23:17.112Z,1.58
2023-05-15T13:25:44.425Z,1.70
2023-05-15T13:28:12.152Z,1.33
2023-05-15T13:30:41.657Z,1.30
2023-05-15T13:33:09.524Z,1.67
2023-05-15T13:35:36.842Z,1.48
2023-05-15T13:38:03.376Z,1.80
2023-05-15T13:40:32.457Z,1.60
2023-05-15T13:42:58.914Z,1.60
2023-05-15T13:45:25.734Z,2.05
2023-05-15T13:47:52.486Z,1.80
2023-05-15T13:50:19.080Z,1.90
2023-05-15T13:52:47.518Z,1.70
2023-05-15T13:55:14.198Z,1.90
2023-05-15T13:57:42.721Z,1.63
2023-05-15T14:00:14.063Z,1.80
2023-05-15T14:02:41.597Z,2.30
2023-05-15T14:05:09.272Z,2.30
2023-05-15T14:07:35.745Z,1.95
2023-05-15T14:10:02.414Z,1.90
2023-05-15T14:12:29.000Z,2.08
2023-05-15T14:14:55.541Z,2.05
2023-05-15T14:17:22.905Z,1.33
2023-05-15T14:19:49.441Z,1.40
2023-05-15T14:22:15.957Z,1.52
2023-05-15T14:24:42.566Z,1.98
2023-05-15T14:27:09.040Z,1.80
2023-05-15T14:29:35.558Z,3.30
2023-05-15T14:32:02.420Z,3.00
2023-05-15T14:34:29.937Z,2.72
2023-05-15T14:36:56.578Z,2.70
2023-05-15T14:39:23.020Z,1.90
2023-05-15T14:41:49.707Z,1.60
2023-05-15T14:44:16.217Z,1.58
2023-05-15T14:46:43.290Z,1.70
2023-05-15T14:49:12.571Z,1.70
2023-05-15T14:51:39.079Z,1.80
2023-05-15T14:54:05.611Z,6.57
2023-05-15T14:56:32.177Z,2.40
2023-05-15T14:58:58.697Z,2.20
2023-05-15T15:01:25.249Z,2.03
2023-05-15T15:03:51.929Z,2.10
2023-05-15T15:06:18.580Z,2.00
2023-05-15T15:08:45.003Z,1.83
2023-05-15T15:11:11.475Z,1.80
2023-05-15T15:13:37.912Z,2.22
2023-05-15T15:16:04.982Z,1.73
2023-05-15T15:18:31.519Z,1.98
2023-05-15T15:20:57.993Z,1.50
2023-05-15T15:23:24.454Z,1.20
2023-05-15T15:25:50.891Z,1.30
2023-05-15T15:28:17.319Z,4.80
2023-05-15T15:30:43.781Z,6.60
2023-05-15T15:33:10.311Z,3.10
2023-05-15T15:35:36.793Z,1.80
2023-05-15T15:38:03.636Z,1.85
2023-05-15T15:40:30.297Z,2.05
2023-05-15T15:42:56.872Z,1.88
2023-05-15T15:45:23.315Z,2.00
2023-05-15T15:47:49.866Z,2.13
2023-05-15T15:50:16.531Z,1.80
2023-05-15T15:52:42.969Z,1.70
2023-05-15T15:55:09.812Z,1.60
2023-05-15T15:57:36.771Z,2.47
2023-05-15T16:00:03.701Z,1.50
2023-05-15T16:02:31.559Z,2.22
2023-05-15T16:04:58.069Z,2.35
2023-05-15T16:07:24.959Z,1.88
2023-05-15T16:10:03.688Z,2.13
2023-05-15T16:15:20.753Z,1.67
2023-05-15T16:17:50.788Z,1.75
2023-05-15T16:20:17.508Z,1.60
2023-05-15T16:22:44.340Z,1.40
2023-05-15T16:25:11.232Z,1.40
2023-05-15T16:27:38.116Z,1.70
2023-05-15T16:30:05.120Z,1.70
2023-05-15T16:32:31.905Z,1.63
2023-05-15T16:34:58.716Z,1.75
2023-05-15T16:37:25.428Z,3.15
2023-05-15T16:39:52.041Z,2.22
2023-05-15T16:42:18.584Z,1.77
2023-05-15T16:44:45.196Z,2.20
2023-05-15T16:47:11.831Z,1.80
2023-05-15T16:49:38.268Z,1.83
2023-05-15T16:52:04.924Z,1.85
2023-05-15T16:54:31.373Z,1.77
2023-05-15T16:56:57.982Z,1.85
2023-05-15T16:59:24.394Z,2.03
2023-05-15T17:01:51.002Z,2.40
2023-05-15T17:04:17.651Z,2.40
2023-05-15T17:06:44.400Z,2.10
2023-05-15T17:09:10.901Z,1.92
2023-05-15T17:11:37.361Z,2.10
2023-05-15T17:14:03.781Z,2.50
2023-05-15T17:16:30.318Z,2.63
2023-05-15T17:18:56.818Z,2.50
2023-05-15T17:21:23.335Z,2.10
2023-05-15T17:23:52.062Z,5.15
2023-05-15T17:26:18.460Z,7.47
2023-05-15T17:28:44.936Z,3.05
2023-05-15T17:31:11.406Z,2.97
2023-05-15T17:33:38.158Z,2.90
2023-05-15T17:36:04.824Z,2.97
2023-05-15T17:38:31.275Z,2.38
2023-05-15T17:40:57.702Z,3.30
2023-05-15T17:43:24.161Z,4.75
2023-05-15T17:45:50.758Z,5.95
2023-05-15T17:48:17.221Z,3.50
2023-05-15T17:50:43.637Z,5.28
2023-05-15T17:53:10.058Z,8.25
2023-05-15T17:55:36.572Z,7.80
2023-05-15T17:58:03.025Z,6.78
2023-05-15T18:00:29.444Z,5.95
2023-05-15T18:02:56.173Z,5.30
2023-05-15T18:05:23.456Z,5.43
2023-05-15T18:07:50.064Z,5.93
2023-05-15T18:10:16.515Z,5.25
2023-05-15T18:12:42.923Z,8.00
2023-05-15T18:15:09.813Z,4.93
2023-05-15T18:17:36.365Z,3.88
2023-05-15T18:20:05.501Z,3.95
2023-05-15T18:22:31.957Z,3.70
2023-05-15T18:24:58.386Z,3.70
2023-05-15T18:27:24.966Z,4.00
2023-05-15T18:29:51.680Z,3.90
2023-05-15T18:32:19.312Z,4.85
2023-05-15T18:34:46.905Z,3.75
2023-05-15T18:37:13.685Z,4.20
2023-05-15T18:39:41.788Z,4.30
2023-05-15T18:42:08.457Z,4.80
2023-05-15T18:44:35.806Z,3.88
2023-05-15T18:47:03.575Z,3.55
2023-05-15T18:49:30.055Z,12.85
2023-05-15T18:51:56.661Z,6.70
2023-05-15T18:54:23.258Z,4.32
2023-05-15T18:56:49.779Z,3.83
2023-05-15T18:59:16.242Z,3.70
2023-05-15T19:01:42.764Z,3.15
2023-05-15T19:04:09.262Z,3.20
2023-05-15T19:06:35.798Z,3.92
2023-05-15T19:09:02.485Z,4.15
2023-05-15T19:11:28.921Z,4.13
2023-05-15T19:13:55.396Z,3.65
2023-05-15T19:16:21.910Z,3.83
2023-05-15T19:18:48.400Z,3.78
2023-05-15T19:21:15.778Z,3.50
2023-05-15T19:23:42.186Z,3.53
2023-05-15T19:26:10.794Z,3.42
2023-05-15T19:28:37.352Z,3.28
2023-05-15T19:31:11.762Z,3.13
2023-05-15T19:33:43.785Z,3.58
2023-05-15T19:36:11.912Z,3.30
2023-05-15T19:38:38.471Z,3.10
2023-05-15T19:41:05.355Z,3.97
2023-05-15T19:43:35.952Z,3.90
2023-05-15T19:46:02.857Z,3.35
2023-05-15T19:48:29.482Z,2.95
2023-05-15T19:50:55.924Z,2.70
2023-05-15T19:53:22.755Z,2.80
2023-05-15T19:55:49.316Z,2.70
2023-05-15T19:58:16.141Z,2.92
2023-05-15T20:00:42.781Z,3.10
2023-05-15T20:03:09.415Z,3.13
2023-05-15T20:05:40.957Z,3.92
2023-05-15T20:08:07.665Z,5.20
2023-05-15T20:10:34.203Z,3.25
2023-05-15T20:13:00.875Z,3.80
2023-05-15T20:15:29.436Z,3.50
2023-05-15T20:17:56.173Z,3.25
2023-05-15T20:20:23.114Z,2.95
2023-05-15T20:22:50.204Z,3.50
2023-05-15T20:25:17.445Z,3.80
2023-05-15T20:27:43.973Z,3.08
2023-05-15T20:30:11.077Z,3.08
2023-05-15T20:32:37.759Z,3.20
2023-05-15T20:35:05.012Z,3.75
2023-05-15T20:37:31.954Z,3.55
2023-05-15T20:39:58.437Z,3.25
2023-05-15T20:42:25.360Z,3.45
2023-05-15T20:44:51.917Z,3.60
2023-05-15T20:47:18.457Z,4.00
2023-05-15T20:49:45.150Z,3.35
2023-05-15T20:52:11.689Z,3.28
2023-05-15T20:54:38.181Z,3.45
2023-05-15T20:57:05.486Z,3.75
2023-05-15T20:59:31.953Z,2.80
2023-05-15T21:01:58.416Z,2.88
2023-05-15T21:04:24.849Z,2.67
2023-05-15T21:06:51.926Z,2.95
2023-05-15T21:09:18.495Z,3.75
2023-05-15T21:11:46.786Z,4.22
2023-05-15T21:14:13.761Z,3.75
2023-05-15T21:16:40.664Z,4.03
2023-05-15T21:19:07.157Z,3.63
2023-05-15T21:21:33.611Z,3.30
2023-05-15T21:24:01.810Z,2.97
2023-05-15T21:26:28.388Z,3.17
2023-05-15T21:28:57.172Z,2.85
2023-05-15T21:31:23.622Z,2.92
2023-05-15T21:33:50.284Z,3.17
2023-05-15T21:36:16.737Z,4.93
2023-05-15T21:38:43.190Z,2.58
2023-05-15T21:41:09.631Z,3.22
2023-05-15T21:43:36.109Z,3.00
2023-05-15T21:46:03.346Z,3.80
2023-05-15T21:48:30.051Z,3.03
2023-05-15T21:50:57.733Z,2.90
2023-05-15T21:53:25.365Z,3.10
2023-05-15T21:55:58.465Z,2.58
2023-05-15T21:58:24.900Z,3.00
2023-05-15T22:00:51.634Z,3.20
2023-05-15T22:03:19.944Z,2.90
2023-05-15T22:05:47.699Z,3.33
2023-05-15T22:08:14.181Z,3.15
2023-05-15T22:10:41.160Z,3.08
2023-05-15T22:13:07.768Z,3.28
2023-05-15T22:15:34.939Z,3.47
2023-05-15T22:18:01.857Z,3.30
2023-05-15T22:20:28.983Z,3.40
2023-05-15T22:22:55.424Z,3.20
2023-05-15T22:25:21.890Z,2.90
2023-05-15T22:27:48.564Z,3.10
2023-05-15T22:30:15.070Z,2.92
2023-05-15T22:32:41.691Z,3.10
2023-05-15T22:35:08.884Z,3.15
2023-05-15T22:37:35.709Z,3.00
2023-05-15T22:40:02.452Z,3.05
2023-05-15T22:42:29.013Z,3.67
2023-05-15T22:44:57.444Z,3.15
2023-05-15T22:47:24.979Z,3.03
2023-05-15T22:49:51.554Z,3.17
2023-05-15T22:52:18.629Z,3.65
2023-05-15T22:54:45.095Z,3.17
2023-05-15T22:57:11.549Z,3.28
2023-05-15T22:59:38.354Z,3.17
2023-05-15T23:02:05.040Z,3.20
2023-05-15T23:04:31.471Z,2.95
2023-05-15T23:06:57.864Z,3.20
2023-05-15T23:09:24.287Z,3.72
2023-05-15T23:11:50.711Z,3.67
2023-05-15T23:14:17.549Z,3.78
2023-05-15T23:16:44.446Z,3.55
2023-05-15T23:19:10.913Z,3.10
2023-05-15T23:21:37.931Z,3.92
2023-05-15T23:24:04.974Z,3.72
2023-05-15T23:26:31.889Z,3.50
2023-05-15T23:28:58.320Z,3.20
2023-05-15T23:31:24.764Z,3.13
2023-05-15T23:33:51.617Z,3.25
2023-05-15T23:36:18.301Z,2.85
2023-05-15T23:38:45.473Z,2.70
2023-05-15T23:41:11.947Z,3.22
2023-05-15T23:43:38.362Z,3.20
2023-05-15T23:46:05.034Z,3.08
2023-05-15T23:48:31.666Z,2.95
2023-05-15T23:50:58.636Z,3.08
2023-05-15T23:53:25.064Z,3.60
2023-05-15T23:55:51.758Z,3.38
2023-05-15T23:58:18.200Z,3.55
